Latest Weather Observations for Parawa West

IDS60901

Issued at 11:21 am CDT Tuesday 19 February 2019 (issued every 10 minutes, with the page automatically refreshed every 10 minutes)

About weather observations | Map of Adelaide area stations | Latest observations for Adelaide area | Other Formats
Station Details ID: 023875 Name: SECOND VALLEY FOREST AWS Lat: -35.57 Lon: 138.29 Height: 341.0 m
Data from the previous 72 hours. | See also: Recent months at Parawa West
Date/Time
CDT
Temp
°C
App
Temp
°C
Dew
Point
°C
Rel
Hum
%
Delta-T
°C
Wind Press
QNH
hPa
Press
MSL
hPa
Rain since
9am
mm
Dir  Spd
km/h
Gust
km/h
Spd
kts
Gust
kts
19/11:00am 15.8 12.2 8.5 62 3.8 SSW 17 24 9 13 1017.0 1016.0 0.0
19/10:30am 16.0 12.2 9.7 66 3.3 S 20 28 11 15 1016.8 1015.8 0.0
19/10:00am 16.4 12.5 9.6 64 3.6 S 20 28 11 15 1016.6 1015.6 0.0
19/09:30am 15.0 11.7 9.4 69 2.9 SSW 17 24 9 13 1016.5 1015.5 0.0
19/09:00am 14.8 12.0 8.7 67 3.1 SSW 13 20 7 11 1016.4 1015.4 0.0
19/08:30am 14.5 13.2 9.9 74 2.4 SW 7 13 4 7 1016.1 1015.1 0.0
19/08:00am 14.0 12.6 9.6 75 2.3 SW 7 15 4 8 1015.7 1014.6 0.0
19/07:30am 13.5 12.1 9.6 77 2.0 SW 7 11 4 6 1015.4 1014.3 0.0
19/07:00am 13.4 11.0 8.7 73 2.4 SSW 11 17 6 9 1015.1 1014.0 0.0
19/06:30am 13.8 10.7 9.0 73 2.5 SSW 15 20 8 11 1014.9 1013.8 0.0
19/06:00am 13.9 11.5 8.5 70 2.8 SSW 11 17 6 9 1014.8 1013.7 0.0
19/05:30am 13.9 10.8 8.7 71 2.7 SSW 15 22 8 12 1014.6 1013.5 0.0
19/05:00am 14.0 11.4 9.4 74 2.4 SSW 13 20 7 11 1014.6 1013.5 0.0
19/04:30am 14.0 11.1 9.6 75 2.3 SSW 15 20 8 11 1014.6 1013.5 0.0
19/04:00am 13.9 11.7 9.3 74 2.4 SSW 11 20 6 11 1014.6 1013.5 0.0
19/03:30am 13.9 11.7 7.9 67 3.0 SSW 9 17 5 9 1014.7 1013.6 0.0
19/03:00am 14.1 10.9 8.5 69 2.9 SSW 15 24 8 13 1014.8 1013.7 0.0
19/02:30am 14.1 10.4 8.1 67 3.0 SSW 17 30 9 16 1014.9 1013.8 0.0
19/02:00am 14.1 10.5 9.9 76 2.2 SSW 19 26 10 14 1015.2 1014.1 0.0
19/01:30am 14.3 11.5 8.7 69 2.9 SSW 13 17 7 9 1015.4 1014.3 0.0
19/01:00am 14.2 11.0 8.4 68 3.0 SW 15 22 8 12 1015.6 1014.5 0.0
19/12:30am 14.3 11.4 9.7 74 2.4 SSW 15 24 8 13 1015.5 1014.4 0.0
19/12:00am 14.1 12.0 9.7 75 2.3 SW 11 17 6 9 1015.4 1014.3 0.0
 
Date/Time
CDT
Temp
°C
App
Temp
°C
Dew
Point
°C
Rel
Hum
%
Delta-T
°C
Wind Press
QNH
hPa
Press
MSL
hPa
Rain since
9am
mm
Dir  Spd
km/h
Gust
km/h
Spd
kts
Gust
kts
18/11:30pm 13.6 11.3 8.9 73 2.4 SSW 11 17 6 9 1015.4 1014.3 0.0
18/11:00pm 14.2 10.7 8.8 70 2.8 SW 17 26 9 14 1015.5 1014.4 0.0
18/10:30pm 14.3 11.5 10.1 76 2.2 SSW 15 24 8 13 1015.3 1014.2 0.0
18/10:00pm 14.4 11.1 10.8 79 1.9 SSW 19 26 10 14 1015.2 1014.1 0.0
18/09:30pm 14.4 11.1 9.6 73 2.5 SSW 17 22 9 12 1014.9 1013.8 0.0
18/09:00pm 14.7 12.0 10.3 75 2.3 S 15 24 8 13 1014.6 1013.5 0.0
18/08:30pm 14.9 12.1 9.9 72 2.6 SSW 15 28 8 15 1014.3 1013.2 0.0
18/08:00pm 14.8 11.0 9.0 68 3.0 SSW 19 30 10 16 1013.9 1012.9 0.0
18/07:30pm 15.0 11.3 10.2 73 2.6 SSW 20 32 11 17 1013.8 1012.8 0.0
18/07:00pm 15.4 11.2 9.7 69 3.0 SSW 22 32 12 17 1013.5 1012.5 0.0
18/06:30pm 15.8 10.7 10.6 71 2.8 SSW 28 35 15 19 1013.2 1012.1 0.0
18/06:00pm 16.2 11.1 10.5 69 3.1 SSW 28 39 15 21 1012.8 1011.7 0.0
18/05:30pm 16.0 11.2 11.6 75 2.4 SSW 28 43 15 23 1012.5 1011.4 0.0
18/05:00pm 17.2 11.9 9.9 62 3.9 S 28 37 15 20 1012.5 1011.4 0.0
18/04:30pm 17.0 11.3 11.3 69 3.1 S 32 43 17 23 1012.5 1011.4 0.0
18/04:00pm 18.2 12.6 10.3 60 4.3 S 30 39 16 21 1012.4 1011.3 0.0
18/03:30pm 17.5 12.9 10.9 65 3.6 SSW 26 37 14 20 1012.4 1011.3 0.0
18/03:00pm 17.7 12.6 10.6 63 3.9 S 28 39 15 21 1012.3 1011.2 0.0
18/02:30pm 17.6 12.5 10.5 63 3.9 S 28 35 15 19 1012.3 1011.2 0.0
18/02:00pm 16.5 11.7 10.4 67 3.3 SSW 26 35 14 19 1012.3 1011.2 0.0
18/01:30pm 17.2 12.7 11.5 69 3.2 SSW 26 39 14 21 1012.2 1011.1 0.0
18/01:00pm 17.1 11.8 11.4 69 3.1 S 30 44 16 24 1012.1 1011.0 0.0
18/12:30pm 17.3 11.5 10.7 65 3.6 S 32 43 17 23 1012.0 1010.9 0.0
18/12:00pm 16.9 11.8 10.5 66 3.5 S 28 41 15 22 1012.1 1011.0 0.0
18/11:30am 15.9 11.3 10.9 72 2.7 S 26 37 14 20 1012.4 1011.3 0.0
18/11:00am 15.8 11.2 11.2 74 2.5 SSW 26 37 14 20 1012.5 1011.4 0.0
18/10:30am 16.3 11.9 11.7 74 2.5 SSW 26 37 14 20 1011.9 1010.8 0.0
18/10:00am 15.8 10.1 11.0 73 2.6 S 32 41 17 22 1011.2 1010.1 0.0
18/09:30am 15.8 10.0 11.6 76 2.3 S 33 46 18 25 1010.8 1009.8 0.0
18/09:00am 15.0 10.3 12.0 82 1.7 S 28 37 15 20 1010.8 1009.8 0.0
18/08:30am 14.7 9.9 11.8 83 1.6 S 28 37 15 20 1010.6 1009.5 0.0
18/08:00am 14.3 9.5 11.6 84 1.5 S 28 37 15 20 1009.9 1008.8 0.0
18/07:30am 14.2 8.8 12.1 87 1.2 S 32 39 17 21 1010.0 1008.9 0.0
18/07:00am 14.2 8.6 12.2 88 1.1 S 33 43 18 23 1009.6 1008.5 0.0
18/06:30am 14.4 9.1 13.1 92 0.7 S 33 43 18 23 1009.3 1008.2 0.0
18/06:00am 14.7 10.2 13.7 94 0.6 S 30 37 16 20 1008.9 1007.8 0.0
18/05:30am 15.1 10.7 14.0 93 0.6 S 30 37 16 20 1008.8 1007.7 0.0
18/05:00am 15.2 11.2 14.2 94 0.6 S 28 33 15 18 1008.7 1007.6 0.0
18/04:30am 15.4 11.3 14.8 96 0.4 S 30 37 16 20 1008.6 1007.5 0.0
18/04:00am 15.6 11.9 15.1 97 0.3 S 28 35 15 19 1008.5 1007.4 0.0
18/03:30am 15.8 12.7 15.5 98 0.2 SSE 26 33 14 18 1008.3 1007.2 0.0
18/03:00am 16.0 13.3 15.7 98 0.2 SSE 24 32 13 17 1008.4 1007.3 0.0
18/02:30am 16.1 14.2 15.8 98 0.2 SSE 20 30 11 16 1008.3 1007.2 0.0
18/02:00am 16.2 13.1 15.7 97 0.3 SSE 26 35 14 19 1008.8 1007.7 0.0
18/01:30am 16.4 13.1 16.1 98 0.2 SSE 28 39 15 21 1009.0 1007.9 0.0
18/01:00am 16.8 14.1 16.5 98 0.2 SSE 26 33 14 18 1009.1 1008.0 0.0
18/12:30am 16.8 13.1 16.0 95 0.5 S 30 41 16 22 1009.3 1008.2 0.0
18/12:00am 17.0 15.0 16.5 97 0.3 S 22 28 12 15 1009.1 1008.0 0.0
 
Date/Time
CDT
Temp
°C
App
Temp
°C
Dew
Point
°C
Rel
Hum
%
Delta-T
°C
Wind Press
QNH
hPa
Press
MSL
hPa
Rain since
9am
mm
Dir  Spd
km/h
Gust
km/h
Spd
kts
Gust
kts
17/11:30pm 17.3 15.8 16.7 96 0.4 S 20 24 11 13 1009.2 1008.1 0.0
17/11:00pm 17.6 17.0 15.6 88 1.2 S 13 19 7 10 1009.0 1007.9 0.0
17/10:30pm 19.4 17.4 10.1 55 5.1 S 11 15 6 8 1009.0 1007.9 0.0
17/10:00pm 20.8 19.2 8.1 44 6.7 ENE 6 9 3 5 1008.7 1007.6 0.0
17/09:30pm 20.2 18.1 9.7 51 5.7 ESE 11 13 6 7 1008.7 1007.6 0.0
17/09:00pm 19.9 18.2 9.8 52 5.5 SSE 9 13 5 7 1009.1 1008.0 0.0
17/08:30pm 21.1 19.5 8.0 43 6.9 ENE 6 7 3 4 1008.9 1007.8 0.0
17/08:00pm 20.7 19.8 9.3 48 6.2 ENE 4 6 2 3 1009.3 1008.2 0.0
17/07:30pm 21.9 19.9 7.3 39 7.7 E 7 9 4 5 1009.1 1008.0 0.0
17/07:00pm 20.6 19.1 10.4 52 5.6 SE 9 11 5 6 1009.4 1008.3 0.0
17/06:30pm 20.7 18.8 11.9 57 5.0 S 13 17 7 9 1009.9 1008.8 0.0
17/06:00pm 24.3 22.8 7.0 33 9.2 WNW 4 6 2 3 1009.7 1008.6 0.0
17/05:30pm 25.2 23.0 5.4 28 10.3 WNW 6 11 3 6 1010.0 1008.9 0.0
17/05:00pm 25.6 22.7 4.7 26 10.7 NW 9 15 5 8 1009.8 1008.7 0.0
17/04:30pm 25.4 23.2 5.1 27 10.5 NW 6 7 3 4 1009.5 1008.4 0.0
17/04:00pm 26.1 23.6 4.6 25 11.0 NW 7 11 4 6 1009.8 1008.7 0.0
17/03:30pm 26.6 24.0 4.4 24 11.4 NNW 7 15 4 8 1010.0 1008.9 0.0
17/03:00pm 26.9 24.3 3.4 22 11.9 NW 6 13 3 7 1010.4 1009.3 0.0
17/02:30pm 27.5 24.9 3.2 21 12.3 NNW 6 13 3 7 1010.7 1009.7 0.0
17/02:00pm 29.3 26.8 4.7 21 12.9 N 7 15 4 8 1011.1 1010.0 0.0
17/01:30pm 27.3 25.4 6.7 27 11.0 N 6 11 3 6 1011.5 1010.4 0.0
17/01:00pm 26.3 23.4 6.4 28 10.5 NE 11 19 6 10 1011.9 1010.8 0.0
17/12:30pm 25.1 21.5 4.8 27 10.4 NE 13 20 7 11 1012.7 1011.6 0.0
17/12:00pm 24.1 19.4 5.0 29 9.7 ENE 19 24 10 13 1013.1 1012.0 0.0
17/11:30am 23.5 18.9 6.3 33 8.9 E 20 24 11 13 1013.8 1012.8 0.0
17/11:00am 23.4 19.8 4.9 30 9.4 ESE 13 17 7 9 1014.7 1013.6 0.0
17/10:30am 22.9 18.3 3.9 29 9.4 ESE 17 20 9 11 1014.2 1013.1 0.0
17/10:00am 23.3 19.1 3.8 28 9.7 ESE 15 19 8 10 1014.4 1013.3 0.0
17/09:30am 21.3 17.4 3.5 31 8.7 ESE 13 17 7 9 1014.5 1013.4 0.0
17/09:00am 19.6 15.9 2.5 32 8.1 ESE 11 15 6 8 1014.3 1013.2 0.0
17/08:30am 18.5 14.7 1.5 32 7.8 SE 11 15 6 8 1014.3 1013.2 0.0
17/08:00am 17.7 14.1 2.8 37 7.0 SE 11 13 6 7 1014.2 1013.1 0.0
17/07:30am 18.4 14.5 1.4 32 7.8 E 11 15 6 8 1013.7 1012.7 0.0
17/07:00am 18.3 15.0 0.4 30 8.0 ESE 7 11 4 6 1013.8 1012.8 0.0
17/06:30am 18.2 14.9 0.4 30 8.0 ESE 7 9 4 5 1013.3 1012.3 0.0
17/06:00am 18.4 15.3 0.1 29 8.1 SE 6 7 3 4 1013.3 1012.3 0.0
17/05:30am 18.6 14.9 -0.2 28 8.3 SE 9 11 5 6 1013.1 1012.0 0.0
17/05:00am 18.1 14.4 -0.2 29 8.1 SE 9 11 5 6 1013.3 1012.3 0.0
17/04:30am 18.8 15.5 -0.1 28 8.4 SE 7 9 4 5 1013.3 1012.3 0.0
17/04:00am 19.3 15.9 -1.7 24 9.1 SE 6 7 3 4 1013.5 1012.5 0.0
17/03:30am 18.1 14.7 -0.7 28 8.2 SE 7 9 4 5 1013.3 1012.3 0.0
17/03:00am 18.7 15.2 -1.2 26 8.6 SE 7 9 4 5 1013.7 1012.7 0.0
17/02:30am 17.9 14.6 0.1 30 7.9 SE 7 9 4 5 1014.2 1013.1 0.0
17/02:00am 17.2 13.7 1.2 34 7.2 ESE 9 9 5 5 1014.8 1013.7 0.0
17/01:30am 18.8 15.5 -0.1 28 8.4 ESE 7 7 4 4 1015.1 1014.0 0.0
17/01:00am 19.5 16.1 -0.5 26 8.9 ESE 7 9 4 5 1015.3 1014.2 0.0
17/12:30am 18.7 15.7 1.7 32 7.8 SE 7 9 4 5 1015.7 1014.6 0.0
17/12:00am 17.8 15.1 3.7 39 6.7 SE 7 11 4 6 1015.9 1014.9 0.0
 
Date/Time
CDT
Temp
°C
App
Temp
°C
Dew
Point
°C
Rel
Hum
%
Delta-T
°C
Wind Press
QNH
hPa
Press
MSL
hPa
Rain since
9am
mm
Dir  Spd
km/h
Gust
km/h
Spd
kts
Gust
kts
16/11:30pm 17.3 15.0 5.6 46 5.8 SE 7 9 4 5 1016.3 1015.3 0.0
16/11:00pm 16.1 14.3 9.3 64 3.6 SSE 9 9 5 5 1016.7 1015.7 0.0
16/10:30pm 15.7 13.9 10.7 72 2.7 SSE 11 13 6 7 1016.9 1015.9 0.0
16/10:00pm 15.4 13.9 11.8 79 2.0 SSE 11 13 6 7 1016.9 1015.9 0.0
16/09:30pm 16.3 15.2 12.1 76 2.3 SE 9 13 5 7 1016.6 1015.6 0.0
16/09:00pm 15.4 14.6 14.1 92 0.7 SSE 11 13 6 7 1016.5 1015.5 0.0
16/08:30pm 17.4 16.7 12.1 71 3.0 SE 7 11 4 6 1016.3 1015.3 0.0
16/08:00pm 18.2 17.4 13.9 76 2.5 SSE 11 15 6 8 1016.4 1015.4 0.0
16/07:30pm 19.9 19.3 13.4 66 3.8 SSE 9 11 5 6 1016.1 1015.1 0.0
16/07:00pm 21.1 19.3 12.0 56 5.2 S 13 15 7 8 1016.3 1015.3 0.0
16/06:30pm 21.4 19.4 10.3 49 6.1 SSE 11 13 6 7 1016.4 1015.4 0.0
16/06:00pm 21.3 19.2 11.1 52 5.7 SSE 13 17 7 9 1016.5 1015.5 0.0
16/05:30pm 21.6 19.9 12.5 56 5.2 SSE 13 19 7 10 1016.5 1015.5 0.0
16/05:00pm 21.4 20.0 13.3 60 4.7 SSE 13 19 7 10 1016.6 1015.6 0.0
16/04:30pm 22.2 21.0 14.1 60 4.8 SSE 13 17 7 9 1016.6 1015.6 0.0
16/04:00pm 22.7 20.5 14.5 60 4.9 SSE 19 24 10 13 1016.8 1015.8 0.0
16/03:30pm 25.6 25.8 14.7 51 6.6 S 7 13 4 7 1016.7 1015.7 0.0
16/03:00pm 25.8 25.5 12.6 44 7.7 SSE 6 9 3 5 1017.0 1016.0 0.0
16/02:30pm 23.8 22.8 14.5 56 5.6 SSE 13 19 7 10 1017.5 1016.4 0.0
16/02:00pm 23.7 23.3 14.1 55 5.7 SSE 9 13 5 7 1018.0 1016.9 0.0
16/01:30pm 23.1 22.5 14.7 59 5.0 SSE 11 17 6 9 1018.4 1017.4 0.0
16/01:00pm 23.4 22.9 14.9 59 5.1 SSE 11 17 6 9 1018.7 1017.7 0.0
16/12:30pm 22.9 21.8 14.2 58 5.2 SSE 13 17 7 9 1019.1 1018.1 0.0
16/12:00pm 22.7 22.2 14.8 61 4.7 SSE 11 15 6 8 1019.2 1018.2 0.0
16/11:30am 24.6 23.7 10.5 41 7.9 NNW 6 15 3 8 1019.4 1018.4 0.0

Latest Capital City Observations: Canberra | Sydney | Melbourne | Brisbane | Adelaide | Perth | Hobart | Darwin

Other formats

Comma delimited format used in spreadsheet applications
http://www.bom.gov.au/fwo/IDS60901/IDS60901.94811.axf

JavaScript Object Notation format (JSON) in row-major order
http://www.bom.gov.au/fwo/IDS60901/IDS60901.94811.json

Data quality

Most of these data are generated automatically and are frequently updated. Quality checks on data are not normally performed. It is possible for incorrect values to appear. Refer to information at About Latest Weather Observations and please check the disclaimer before using these data.